Time;durP1;ratioP1;P1;durP2;ratioP2;P2;SDS_P1;SDS_P2;PMS_P1;PMS_P2;Temp;Humidity;BMP_temperature;BMP_pressure;BME280_temperature;BME280_humidity;BME280_pressure;Samples;Min_cycle;Max_cycle;Signal;HPM_P1;HPM_P2
2023/03/23 00:01:57;;;;;;;8.55;5.07;;;11.10;99.90;;;;;;4997533;28;20028;-67
2023/03/23 00:04:24;;;;;;;7.57;4.20;;;11.10;99.90;;;;;;5008535;28;20034;-66
2023/03/23 00:06:50;;;;;;;7.35;4.45;;;11.10;99.90;;;;;;4997292;28;20030;-66
2023/03/23 00:09:17;;;;;;;15.47;4.87;;;11.10;99.90;;;;;;5000318;28;20370;-67
2023/03/23 00:11:42;;;;;;;;;;;11.10;99.90;;;;;;4985652;28;20049;-67
2023/03/23 00:14:12;;;;;;;6.73;4.07;;;11.20;99.90;;;;;;5012174;28;20312;-66
2023/03/23 00:16:40;;;;;;;13.27;4.70;;;11.20;99.90;;;;;;5012682;28;20363;-68
2023/03/23 00:19:09;;;;;;;10.75;4.65;;;11.20;99.90;;;;;;5000118;28;20026;-77
2023/03/23 00:21:38;;;;;;;7.90;4.00;;;11.20;99.90;;;;;;5004029;28;20086;-75
2023/03/23 00:24:24;;;;;;;8.80;4.00;;;11.20;99.90;;;;;;5006292;28;20044;-66
2023/03/23 00:26:51;;;;;;;6.75;4.30;;;11.20;99.90;;;;;;4994575;28;20384;-66
2023/03/23 00:29:22;;;;;;;11.15;4.40;;;11.20;99.90;;;;;;5008193;28;20054;-65
2023/03/23 00:31:49;;;;;;;8.68;4.15;;;11.20;99.90;;;;;;5009175;28;20030;-66
2023/03/23 00:34:19;;;;;;;15.75;3.88;;;11.20;99.90;;;;;;5000118;28;20080;-65
2023/03/23 00:36:50;;;;;;;10.20;4.40;;;11.20;99.90;;;;;;5005220;28;20058;-66
2023/03/23 00:39:17;;;;;;;8.05;3.85;;;11.20;99.90;;;;;;5010758;28;20037;-65
2023/03/23 00:41:44;;;;;;;11.13;4.15;;;11.20;99.90;;;;;;5006537;28;20483;-65
2023/03/23 00:44:10;;;;;;;;;;;11.20;99.90;;;;;;5003162;28;20022;-66
2023/03/23 00:46:44;;;;;;;9.50;3.35;;;11.20;99.90;;;;;;5014334;28;20235;-74
2023/03/23 00:49:18;;;;;;;7.00;3.60;;;11.30;99.90;;;;;;5005702;28;20021;-66
2023/03/23 00:51:44;;;;;;;9.05;3.50;;;11.30;99.90;;;;;;5009566;28;20057;-66
2023/03/23 00:54:11;;;;;;;7.88;3.42;;;11.30;99.90;;;;;;5008382;28;20026;-66
2023/03/23 00:56:38;;;;;;;6.85;3.67;;;11.30;99.90;;;;;;5014299;28;20044;-82
2023/03/23 00:59:05;;;;;;;6.93;4.32;;;11.30;99.90;;;;;;5002310;28;20026;-65
2023/03/23 01:01:31;;;;;;;7.57;3.22;;;11.30;99.90;;;;;;5004749;28;20030;-66
2023/03/23 01:04:00;;;;;;;7.90;3.40;;;11.30;99.90;;;;;;5012094;28;20314;-74
2023/03/23 01:06:30;;;;;;;7.45;2.95;;;11.30;99.90;;;;;;5007082;28;20025;-66
2023/03/23 01:08:58;;;;;;;6.40;3.50;;;11.30;99.90;;;;;;4995308;28;20030;-66
2023/03/23 01:11:24;;;;;;;16.33;3.55;;;11.30;99.90;;;;;;4996277;28;20052;-77
2023/03/23 01:13:51;;;;;;;8.88;3.50;;;11.20;99.90;;;;;;4997851;28;20065;-64
2023/03/23 01:16:17;;;;;;;8.10;3.10;;;11.20;99.90;;;;;;5011213;28;20022;-66
2023/03/23 01:18:42;;;;;;;7.17;3.23;;;11.20;99.90;;;;;;5015904;28;20476;-65
2023/03/23 01:21:11;;;;;;;9.70;3.97;;;11.30;99.90;;;;;;4999327;28;20161;-65
2023/03/23 01:23:38;;;;;;;9.25;3.38;;;11.30;99.90;;;;;;5000420;28;20414;-77
2023/03/23 01:26:13;;;;;;;5.40;2.47;;;11.30;99.90;;;;;;4998081;28;20031;-65
2023/03/23 01:28:39;;;;;;;3.85;2.65;;;11.30;99.90;;;;;;5011103;28;20022;-67
2023/03/23 01:31:09;;;;;;;9.68;2.95;;;11.30;99.90;;;;;;5004899;28;20029;-65
2023/03/23 01:33:35;;;;;;;5.57;2.63;;;11.30;99.90;;;;;;5001316;28;20065;-73
2023/03/23 01:36:12;;;;;;;8.13;2.87;;;11.30;99.90;;;;;;5003516;28;20031;-66
2023/03/23 01:38:38;;;;;;;11.95;2.53;;;11.40;99.90;;;;;;5010917;28;20272;-67
2023/03/23 01:41:05;;;;;;;5.67;2.83;;;11.30;99.90;;;;;;5004491;28;20495;-65
2023/03/23 01:43:31;;;;;;;3.33;2.30;;;11.40;99.90;;;;;;5014955;28;20029;-64
2023/03/23 01:45:57;;;;;;;5.28;2.38;;;11.40;99.90;;;;;;5002663;28;20022;-66
2023/03/23 01:48:34;;;;;;;4.77;2.23;;;11.40;99.90;;;;;;4997241;28;20030;-65
2023/03/23 01:51:12;;;;;;;7.90;2.30;;;11.40;99.90;;;;;;4999880;28;20524;-66
2023/03/23 01:53:46;;;;;;;4.03;2.35;;;11.40;99.90;;;;;;5014920;28;20335;-79
2023/03/23 01:56:14;;;;;;;6.47;2.58;;;11.40;99.90;;;;;;5012022;28;20033;-65
2023/03/23 01:58:41;;;;;;;6.70;2.63;;;11.40;99.90;;;;;;5015470;28;20025;-67
2023/03/23 02:01:11;;;;;;;5.30;2.25;;;11.40;99.90;;;;;;5014754;28;20033;-65
2023/03/23 02:03:41;;;;;;;4.13;2.15;;;11.40;99.90;;;;;;5013618;28;20125;-77
2023/03/23 02:06:07;;;;;;;5.90;2.67;;;11.40;99.90;;;;;;5012133;28;20022;-66
2023/03/23 02:08:35;;;;;;;3.83;2.30;;;11.40;99.90;;;;;;5013133;28;20033;-66
2023/03/23 02:11:01;;;;;;;6.90;2.58;;;11.40;99.90;;;;;;5014072;28;20042;-66
2023/03/23 02:13:28;;;;;;;3.73;2.03;;;11.40;99.90;;;;;;5015102;28;20026;-76
2023/03/23 02:16:15;;;;;;;6.47;2.45;;;11.40;99.90;;;;;;5013155;28;20052;-65
2023/03/23 02:19:06;;;;;;;3.13;1.88;;;11.40;99.90;;;;;;5012367;28;20076;-72
2023/03/23 02:21:47;;;;;;;4.07;2.20;;;11.40;99.90;;;;;;5008617;28;20033;-65
2023/03/23 02:24:23;;;;;;;6.75;1.90;;;11.40;99.90;;;;;;5009154;28;20439;-65
2023/03/23 02:27:26;;;;;;;3.17;1.95;;;11.40;99.90;;;;;;5010409;28;20073;-66
2023/03/23 02:30:13;;;;;;;4.32;2.00;;;11.40;99.90;;;;;;5000149;28;20025;-64
2023/03/23 02:32:52;;;;;;;4.65;1.95;;;11.40;99.90;;;;;;4997483;28;20022;-66
2023/03/23 02:35:19;;;;;;;8.23;2.20;;;11.40;99.90;;;;;;5012175;28;20018;-66
2023/03/23 02:38:13;;;;;;;7.82;2.10;;;11.40;99.90;;;;;;5013491;28;20049;-66
2023/03/23 02:40:42;;;;;;;4.00;1.88;;;11.40;99.90;;;;;;5008955;28;20321;-67
2023/03/23 02:43:12;;;;;;;4.18;2.10;;;11.40;99.90;;;;;;5000433;28;20035;-65
2023/03/23 02:45:40;;;;;;;4.55;2.17;;;11.40;99.90;;;;;;5011449;28;20073;-70
2023/03/23 02:48:07;;;;;;;7.32;2.25;;;11.40;99.90;;;;;;5013438;28;20072;-66
2023/03/23 02:50:35;;;;;;;5.22;2.00;;;11.40;99.90;;;;;;5010920;28;20062;-66
2023/03/23 02:53:03;;;;;;;2.58;1.90;;;11.40;99.90;;;;;;5012457;28;20045;-65
2023/03/23 02:55:31;;;;;;;6.30;2.10;;;11.50;99.90;;;;;;5009459;28;20440;-65
2023/03/23 02:57:57;;;;;;;7.32;2.10;;;11.50;99.90;;;;;;4985139;28;20030;-65
2023/03/23 03:00:22;;;;;;;6.80;2.57;;;11.40;99.90;;;;;;5001079;28;20326;-65
2023/03/23 03:02:57;;;;;;;5.53;2.10;;;11.50;99.90;;;;;;4995205;28;20334;-66
2023/03/23 03:05:48;;;;;;;8.40;2.25;;;11.40;99.90;;;;;;4995296;28;20037;-64
2023/03/23 03:08:26;;;;;;;4.53;2.15;;;11.40;99.90;;;;;;4967133;28;20069;-66
2023/03/23 03:11:14;;;;;;;5.57;2.40;;;11.40;99.90;;;;;;4994158;28;20050;-66
2023/03/23 03:13:52;;;;;;;4.07;1.83;;;11.50;99.90;;;;;;4995063;28;20026;-65
2023/03/23 03:16:23;;;;;;;5.18;2.15;;;11.40;99.90;;;;;;4994460;28;20102;-64
2023/03/23 03:19:15;;;;;;;6.80;2.08;;;11.50;99.90;;;;;;4999356;28;20072;-64
2023/03/23 03:21:44;;;;;;;4.85;2.10;;;11.50;99.90;;;;;;4993320;28;20070;-79
2023/03/23 03:24:13;;;;;;;2.72;2.05;;;11.40;99.90;;;;;;4995469;28;20042;-65
2023/03/23 03:26:45;;;;;;;7.60;2.42;;;11.40;99.90;;;;;;5007131;28;20317;-67
2023/03/23 03:29:11;;;;;;;6.47;2.08;;;11.30;99.90;;;;;;5004707;28;20087;-66
2023/03/23 03:31:40;;;;;;;3.38;1.60;;;11.30;99.90;;;;;;5004586;28;20330;-75
2023/03/23 03:34:06;;;;;;;4.55;1.92;;;11.30;99.90;;;;;;5010171;28;20038;-65
2023/03/23 03:36:35;;;;;;;1.80;1.38;;;11.30;99.90;;;;;;5014976;28;20029;-66
2023/03/23 03:39:07;;;;;;;8.77;1.90;;;11.20;99.90;;;;;;4999484;28;20424;-65
2023/03/23 03:41:35;;;;;;;7.38;2.20;;;11.20;99.90;;;;;;4985733;28;20026;-66
2023/03/23 03:44:01;;;;;;;4.90;1.80;;;11.20;99.90;;;;;;5011708;28;20101;-65
2023/03/23 03:46:29;;;;;;;;;;;11.20;99.90;;;;;;5010555;28;20026;-65
2023/03/23 03:48:56;;;;;;;5.85;2.00;;;11.20;99.90;;;;;;5010381;28;19961;-67
2023/03/23 03:51:23;;;;;;;12.13;2.50;;;11.20;99.90;;;;;;5008491;28;20109;-65
2023/03/23 03:53:49;;;;;;;5.03;1.95;;;11.30;99.90;;;;;;5014913;28;20034;-65
2023/03/23 03:56:15;;;;;;;7.40;1.73;;;11.30;99.90;;;;;;5015034;28;20065;-75
2023/03/23 03:58:42;;;;;;;8.27;1.60;;;11.30;99.90;;;;;;5013398;28;20380;-65
2023/03/23 04:01:13;;;;;;;5.32;2.67;;;11.30;99.90;;;;;;4998008;28;20118;-65
2023/03/23 04:03:39;;;;;;;6.30;2.08;;;11.20;99.90;;;;;;5002616;28;20062;-65
2023/03/23 04:06:05;;;;;;;4.60;1.80;;;11.20;99.90;;;;;;5008583;28;20025;-65
2023/03/23 04:08:32;;;;;;;7.50;2.33;;;11.10;99.90;;;;;;5005709;28;20073;-66
2023/03/23 04:10:58;;;;;;;2.10;1.58;;;11.10;99.90;;;;;;5000162;28;20351;-66
2023/03/23 04:13:24;;;;;;;4.80;1.80;;;11.00;99.90;;;;;;4984159;28;20042;-67
2023/03/23 04:15:50;;;;;;;4.47;1.70;;;11.00;99.90;;;;;;5001037;28;20162;-67
2023/03/23 04:18:17;;;;;;;2.80;1.97;;;11.00;99.90;;;;;;4996961;28;20121;-66
2023/03/23 04:20:48;;;;;;;5.38;1.95;;;10.90;99.90;;;;;;4996722;28;20033;-76
2023/03/23 04:23:19;;;;;;;7.47;1.98;;;10.90;99.90;;;;;;4999637;28;20069;-65
2023/03/23 04:25:51;;;;;;;5.72;1.80;;;10.90;99.90;;;;;;4997850;28;20410;-65
2023/03/23 04:28:18;;;;;;;6.05;2.78;;;10.80;99.90;;;;;;4999910;28;20096;-82
2023/03/23 04:30:45;;;;;;;4.90;2.08;;;10.80;99.90;;;;;;5004099;28;20101;-66
2023/03/23 04:33:14;;;;;;;9.80;2.20;;;10.80;99.90;;;;;;5008170;28;20038;-66
2023/03/23 04:35:45;;;;;;;6.75;2.88;;;10.80;99.90;;;;;;5003557;28;20101;-67
2023/03/23 04:38:12;;;;;;;4.47;2.83;;;10.80;99.90;;;;;;4999585;28;20041;-65
2023/03/23 04:40:40;;;;;;;5.40;3.25;;;10.80;99.90;;;;;;4996524;28;20050;-65
2023/03/23 04:43:06;;;;;;;6.45;3.00;;;10.70;99.90;;;;;;4992277;28;20061;-81
2023/03/23 04:45:34;;;;;;;6.88;3.67;;;10.70;99.90;;;;;;4995784;28;20429;-67
2023/03/23 04:48:01;;;;;;;7.07;3.00;;;10.70;99.90;;;;;;5010050;28;20034;-66
2023/03/23 04:50:30;;;;;;;9.23;2.70;;;10.60;99.90;;;;;;5008271;28;20026;-66
2023/03/23 04:52:57;;;;;;;5.78;2.75;;;10.60;99.90;;;;;;5009186;28;20033;-66
2023/03/23 04:55:25;;;;;;;10.93;2.88;;;10.60;99.90;;;;;;5006220;28;20025;-67
2023/03/23 04:57:51;;;;;;;11.18;3.63;;;10.60;99.90;;;;;;4992781;28;20026;-66
2023/03/23 05:00:18;;;;;;;13.43;3.22;;;10.60;99.90;;;;;;5006948;28;20026;-81
2023/03/23 05:02:44;;;;;;;;;;;10.60;99.90;;;;;;5002634;28;20318;-67
2023/03/23 05:05:12;;;;;;;12.43;3.45;;;10.60;99.90;;;;;;5003495;28;20225;-67
2023/03/23 05:07:39;;;;;;;6.13;2.75;;;10.60;99.90;;;;;;5009852;28;20041;-75
2023/03/23 05:10:07;;;;;;;6.75;3.22;;;10.60;99.90;;;;;;5007405;28;20072;-66
2023/03/23 05:12:34;;;;;;;13.38;3.67;;;10.60;99.90;;;;;;5005095;28;20046;-67
2023/03/23 05:14:59;;;;;;;15.23;3.28;;;10.60;99.90;;;;;;5007745;28;20077;-65
2023/03/23 05:17:26;;;;;;;18.43;2.93;;;10.60;99.90;;;;;;5003207;28;20033;-65
2023/03/23 05:19:53;;;;;;;14.38;2.78;;;10.70;99.90;;;;;;5006267;28;20077;-65
2023/03/23 05:22:20;;;;;;;15.60;2.60;;;10.60;99.90;;;;;;5006289;28;20437;-67
2023/03/23 05:24:47;;;;;;;8.25;2.60;;;10.70;99.90;;;;;;5000784;28;20034;-78
2023/03/23 05:27:14;;;;;;;;;;;10.60;99.90;;;;;;5002559;28;20166;-66
2023/03/23 05:29:40;;;;;;;15.27;2.88;;;10.70;99.90;;;;;;4981508;28;20244;-67
2023/03/23 05:32:10;;;;;;;13.48;2.58;;;10.70;99.90;;;;;;4991330;28;20053;-69
2023/03/23 05:34:36;;;;;;;9.10;2.47;;;10.70;99.90;;;;;;4997190;28;20027;-67
2023/03/23 05:37:03;;;;;;;11.20;2.77;;;10.70;99.90;;;;;;4996215;28;20037;-66
2023/03/23 05:39:31;;;;;;;10.55;2.38;;;10.70;99.90;;;;;;5001096;28;20076;-67
2023/03/23 05:41:57;;;;;;;5.78;2.28;;;10.70;99.90;;;;;;5000313;28;20045;-80
2023/03/23 05:44:23;;;;;;;20.40;3.58;;;10.70;99.90;;;;;;4989659;28;20033;-67
2023/03/23 05:46:49;;;;;;;15.80;2.78;;;10.70;99.90;;;;;;4998744;28;20460;-68
2023/03/23 05:49:16;;;;;;;12.27;2.00;;;10.70;99.90;;;;;;5004016;28;20042;-66
2023/03/23 05:51:42;;;;;;;;;;;10.70;99.90;;;;;;5007346;28;20336;-65
2023/03/23 05:54:10;;;;;;;14.75;3.10;;;10.70;99.90;;;;;;5002094;28;19913;-67
2023/03/23 05:56:36;;;;;;;20.40;3.60;;;10.60;99.90;;;;;;4998378;28;20041;-75
2023/03/23 05:59:02;;;;;;;9.05;2.22;;;10.60;99.90;;;;;;5000097;28;20069;-67
2023/03/23 06:01:28;;;;;;;10.27;2.42;;;10.60;99.90;;;;;;5004706;28;20041;-67
2023/03/23 06:03:58;;;;;;;6.53;1.92;;;10.50;99.90;;;;;;4999534;28;20030;-66
2023/03/23 06:06:25;;;;;;;12.32;2.42;;;10.50;99.90;;;;;;4980243;28;20034;-65
2023/03/23 06:08:51;;;;;;;14.05;2.40;;;10.50;99.90;;;;;;5008533;28;20022;-66
2023/03/23 06:11:18;;;;;;;9.80;2.35;;;10.50;99.90;;;;;;5005860;28;20045;-82
2023/03/23 06:13:44;;;;;;;;;;;10.50;99.90;;;;;;4992389;28;20307;-67
2023/03/23 06:16:10;;;;;;;9.75;2.35;;;10.50;99.90;;;;;;5003295;28;19976;-66
2023/03/23 06:18:36;;;;;;;15.70;3.03;;;10.60;99.90;;;;;;5006731;28;20060;-75
2023/03/23 06:21:06;;;;;;;18.00;3.33;;;10.60;99.90;;;;;;5008296;28;20029;-66
2023/03/23 06:23:32;;;;;;;13.32;3.42;;;10.60;99.90;;;;;;5008948;28;20060;-67
2023/03/23 06:26:01;;;;;;;21.27;3.08;;;10.60;99.90;;;;;;5004404;28;20022;-67
2023/03/23 06:28:27;;;;;;;11.88;3.03;;;10.60;99.90;;;;;;5004670;28;20078;-66
2023/03/23 06:30:53;;;;;;;14.10;2.10;;;10.60;99.90;;;;;;4991988;28;20022;-67
2023/03/23 06:33:19;;;;;;;19.17;3.03;;;10.60;99.90;;;;;;5006238;28;20078;-67
2023/03/23 06:35:45;;;;;;;11.63;2.42;;;10.60;99.90;;;;;;5006140;28;20410;-66
2023/03/23 06:38:12;;;;;;;15.30;3.03;;;10.60;99.90;;;;;;4997685;28;20174;-67
2023/03/23 06:40:38;;;;;;;15.52;3.30;;;10.70;99.90;;;;;;5003795;28;20284;-75
2023/03/23 06:43:04;;;;;;;18.10;3.57;;;10.70;99.90;;;;;;5001698;28;20414;-66
2023/03/23 06:45:31;;;;;;;13.00;3.53;;;10.80;99.90;;;;;;5002765;28;20022;-67
2023/03/23 06:47:57;;;;;;;14.50;3.42;;;10.80;99.90;;;;;;5001429;28;20022;-67
2023/03/23 06:50:23;;;;;;;34.10;3.72;;;10.80;99.90;;;;;;5007835;28;20414;-68
2023/03/23 06:52:50;;;;;;;21.80;3.87;;;10.90;99.90;;;;;;5007079;28;20038;-66
2023/03/23 06:55:17;;;;;;;19.67;4.85;;;10.90;99.90;;;;;;5003299;28;20109;-66
2023/03/23 06:57:44;;;;;;;24.60;3.45;;;10.90;99.90;;;;;;5005729;28;20028;-67
2023/03/23 07:00:15;;;;;;;16.55;2.97;;;11.00;99.90;;;;;;5003807;28;20026;-67
2023/03/23 07:02:41;;;;;;;18.02;3.55;;;11.00;99.90;;;;;;4981417;28;20034;-67
2023/03/23 07:05:09;;;;;;;18.00;2.85;;;11.00;99.90;;;;;;4996944;28;20026;-81
2023/03/23 07:07:38;;;;;;;26.80;5.50;;;11.00;99.90;;;;;;5013062;28;20029;-74
2023/03/23 07:10:07;;;;;;;13.73;3.25;;;11.00;99.90;;;;;;4990890;28;20113;-66
2023/03/23 07:12:33;;;;;;;19.85;3.22;;;11.00;99.90;;;;;;4993272;28;20046;-74
2023/03/23 07:14:59;;;;;;;9.75;2.80;;;11.10;99.90;;;;;;5004083;28;20034;-66
2023/03/23 07:17:25;;;;;;;14.38;2.97;;;11.10;99.90;;;;;;4998346;28;20026;-66
2023/03/23 07:19:51;;;;;;;17.60;3.77;;;11.10;99.90;;;;;;4998191;28;20102;-66
2023/03/23 07:22:17;;;;;;;17.70;3.35;;;11.10;99.90;;;;;;5019378;28;20037;-80
2023/03/23 07:24:42;;;;;;;14.93;3.63;;;11.10;99.90;;;;;;5016214;28;20034;-66
2023/03/23 07:27:09;;;;;;;24.90;3.40;;;11.20;99.90;;;;;;5014167;28;20096;-66
2023/03/23 07:29:38;;;;;;;18.25;3.10;;;11.20;99.90;;;;;;5012163;28;20018;-77
2023/03/23 07:32:04;;;;;;;14.93;2.97;;;11.20;99.90;;;;;;5003909;28;20058;-66
2023/03/23 07:34:44;;;;;;;12.32;2.40;;;11.20;99.90;;;;;;4993927;28;20037;-67
2023/03/23 07:37:28;;;;;;;12.25;3.38;;;11.10;99.90;;;;;;4992977;28;20062;-66
2023/03/23 07:39:54;;;;;;;12.10;3.13;;;11.10;99.90;;;;;;5015622;28;20100;-80
2023/03/23 07:42:20;;;;;;;14.67;2.77;;;11.10;99.90;;;;;;4982137;28;20488;-66
2023/03/23 07:44:46;;;;;;;17.73;2.80;;;11.10;99.90;;;;;;4980458;28;20030;-77
2023/03/23 07:47:13;;;;;;;14.40;2.60;;;11.20;99.90;;;;;;4998038;28;20109;-77
2023/03/23 07:49:39;;;;;;;13.77;2.63;;;11.10;99.90;;;;;;4997768;28;20034;-67
2023/03/23 07:52:05;;;;;;;14.80;3.03;;;11.10;99.90;;;;;;4997696;28;20031;-66
2023/03/23 07:54:31;;;;;;;15.17;2.23;;;11.20;99.90;;;;;;5010471;28;20022;-67
2023/03/23 07:56:56;;;;;;;12.27;1.87;;;11.20;99.90;;;;;;5011891;28;20026;-66
2023/03/23 07:59:22;;;;;;;19.63;2.70;;;11.30;99.90;;;;;;5001703;28;20022;-66
2023/03/23 08:01:48;;;;;;;17.00;3.63;;;11.20;99.90;;;;;;4997559;28;20034;-67
2023/03/23 08:04:15;;;;;;;7.70;1.70;;;11.20;99.90;;;;;;5007397;28;20030;-66
2023/03/23 08:06:41;;;;;;;10.18;2.03;;;11.10;99.90;;;;;;5008931;28;20106;-66
2023/03/23 08:09:08;;;;;;;15.48;2.00;;;11.10;99.90;;;;;;5008807;28;20030;-65
2023/03/23 08:11:38;;;;;;;9.88;2.10;;;11.40;99.90;;;;;;5005594;28;20057;-66
2023/03/23 08:14:05;;;;;;;17.42;2.28;;;11.70;99.90;;;;;;5001645;28;20496;-65
2023/03/23 08:16:32;;;;;;;9.43;2.75;;;12.40;99.90;;;;;;4981142;28;20030;-66
2023/03/23 08:18:58;;;;;;;10.55;2.22;;;12.70;99.90;;;;;;5003353;28;20114;-80
2023/03/23 08:21:26;;;;;;;15.65;2.80;;;13.70;99.90;;;;;;4998975;28;20061;-66
2023/03/23 08:23:52;;;;;;;9.52;2.15;;;14.00;99.90;;;;;;5004897;28;20027;-66
2023/03/23 08:26:18;;;;;;;15.48;2.47;;;14.00;99.90;;;;;;5002874;28;20642;-80
2023/03/23 08:28:44;;;;;;;8.77;2.00;;;13.50;99.90;;;;;;5002184;28;20037;-66
2023/03/23 08:31:13;;;;;;;11.25;2.25;;;13.10;99.90;;;;;;5003119;28;20030;-65
2023/03/23 08:33:40;;;;;;;11.73;1.85;;;12.60;99.90;;;;;;5007075;28;20051;-68
2023/03/23 08:36:08;;;;;;;11.93;2.92;;;12.40;99.90;;;;;;5011641;28;20030;-66
2023/03/23 08:38:35;;;;;;;11.05;2.55;;;12.30;99.90;;;;;;4992442;28;20323;-66
2023/03/23 08:41:04;;;;;;;17.02;3.03;;;12.30;99.90;;;;;;5003932;28;20089;-65
2023/03/23 08:43:31;;;;;;;9.10;2.58;;;12.90;99.90;;;;;;5021167;28;20040;-67
2023/03/23 08:45:58;;;;;;;9.35;2.58;;;13.60;99.90;;;;;;5015311;28;20053;-81
2023/03/23 08:48:24;;;;;;;17.10;2.20;;;13.80;99.90;;;;;;5013279;28;20030;-65
2023/03/23 08:50:51;;;;;;;10.32;3.10;;;13.70;99.90;;;;;;5000077;28;20030;-65
2023/03/23 08:53:18;;;;;;;13.90;2.05;;;13.70;99.90;;;;;;5009267;28;20076;-80
2023/03/23 08:55:44;;;;;;;11.50;2.20;;;13.80;99.90;;;;;;5002327;28;20034;-65
2023/03/23 08:58:10;;;;;;;12.77;2.50;;;14.10;99.90;;;;;;5008092;28;20041;-66
2023/03/23 09:00:36;;;;;;;16.13;2.45;;;14.30;99.90;;;;;;5008727;28;20057;-84
2023/03/23 09:03:03;;;;;;;13.23;2.53;;;14.40;99.90;;;;;;5002300;28;20460;-66
2023/03/23 09:05:30;;;;;;;11.45;2.67;;;14.30;99.90;;;;;;5001869;28;20047;-66
2023/03/23 09:07:58;;;;;;;16.75;2.67;;;14.70;99.90;;;;;;4996643;28;20025;-66
2023/03/23 09:10:27;;;;;;;11.30;2.47;;;15.30;99.90;;;;;;5007046;28;20030;-66
2023/03/23 09:12:54;;;;;;;9.20;2.40;;;15.70;99.90;;;;;;4996434;28;20041;-66
2023/03/23 09:15:20;;;;;;;9.43;2.45;;;15.80;99.90;;;;;;4996227;28;20057;-65
2023/03/23 09:17:49;;;;;;;11.30;2.92;;;15.30;99.90;;;;;;5009180;28;20029;-67
2023/03/23 09:20:20;;;;;;;14.38;3.78;;;14.80;99.90;;;;;;4995496;28;20030;-65
2023/03/23 09:22:49;;;;;;;13.75;3.05;;;14.50;99.90;;;;;;5008030;28;20034;-66
2023/03/23 09:25:18;;;;;;;10.55;2.97;;;14.30;99.90;;;;;;5011137;28;20482;-67
2023/03/23 09:27:47;;;;;;;12.55;2.95;;;14.00;99.90;;;;;;4998680;28;20037;-66
2023/03/23 09:30:14;;;;;;;14.05;3.15;;;14.30;99.90;;;;;;5000553;28;20021;-66
2023/03/23 09:32:43;;;;;;;10.65;2.97;;;14.40;99.90;;;;;;4998966;28;20042;-67
2023/03/23 09:35:11;;;;;;;8.43;3.20;;;14.80;99.90;;;;;;5004078;28;20037;-65
2023/03/23 09:37:38;;;;;;;12.40;2.78;;;14.90;99.90;;;;;;5008057;28;20022;-77
2023/03/23 09:40:07;;;;;;;10.07;2.10;;;15.00;99.90;;;;;;5003887;28;20054;-65
2023/03/23 09:43:02;;;;;;;11.40;2.42;;;15.20;99.90;;;;;;4998267;28;20059;-65
2023/03/23 09:45:33;;;;;;;13.35;2.47;;;15.40;99.90;;;;;;5010543;28;20072;-81
2023/03/23 09:48:32;;;;;;;18.05;3.30;;;15.70;99.90;;;;;;5005145;28;20078;-66
2023/03/23 09:51:28;;;;;;;9.80;2.30;;;15.70;99.90;;;;;;5000181;28;20274;-80
2023/03/23 09:54:04;;;;;;;10.68;3.17;;;15.70;99.90;;;;;;4993347;28;20041;-66
2023/03/23 09:56:32;;;;;;;12.23;2.40;;;15.70;99.90;;;;;;4995657;28;20030;-67
2023/03/23 09:59:19;;;;;;;13.77;2.75;;;15.90;99.90;;;;;;4995668;28;20089;-66
2023/03/23 10:01:49;;;;;;;11.52;1.95;;;15.90;99.90;;;;;;4995550;28;20038;-66
2023/03/23 10:04:27;;;;;;;10.15;2.58;;;16.00;99.90;;;;;;4996128;28;20014;-65
2023/03/23 10:07:00;;;;;;;15.23;2.35;;;16.10;99.90;;;;;;4995523;28;20034;-65
2023/03/23 10:09:27;;;;;;;13.23;2.70;;;16.30;99.90;;;;;;5005768;28;20023;-66
2023/03/23 10:12:16;;;;;;;11.43;2.30;;;16.40;99.90;;;;;;5009142;28;20081;-65
2023/03/23 10:14:58;;;;;;;10.60;2.72;;;16.00;99.90;;;;;;4981246;28;20018;-64
2023/03/23 10:17:38;;;;;;;12.75;2.47;;;15.80;99.90;;;;;;4997201;28;20073;-67
2023/03/23 10:20:14;;;;;;;15.10;2.97;;;15.70;99.90;;;;;;4998243;28;20060;-66
2023/03/23 10:23:09;;;;;;;13.48;2.97;;;15.60;99.90;;;;;;4994719;28;20034;-67
2023/03/23 10:25:40;;;;;;;9.98;2.35;;;15.60;99.90;;;;;;4998729;28;20045;-77
2023/03/23 10:28:17;;;;;;;9.70;2.08;;;15.60;99.90;;;;;;4995634;28;20504;-65
2023/03/23 10:30:46;;;;;;;11.95;2.38;;;15.40;99.90;;;;;;4980768;28;20509;-66
2023/03/23 10:33:53;;;;;;;13.77;2.92;;;15.60;99.90;;;;;;4997276;28;20014;-65
2023/03/23 10:36:30;;;;;;;12.50;3.03;;;15.70;99.90;;;;;;4992864;28;20052;-65
2023/03/23 10:39:22;;;;;;;12.90;2.35;;;15.80;99.90;;;;;;4985039;28;20038;-65
2023/03/23 10:41:48;;;;;;;11.82;2.42;;;15.90;99.90;;;;;;5006647;28;20444;-66
2023/03/23 10:44:21;;;;;;;11.43;2.87;;;15.80;99.90;;;;;;5002484;28;20026;-65
2023/03/23 10:47:05;;;;;;;13.68;2.03;;;15.80;99.90;;;;;;5006756;28;20022;-66
2023/03/23 10:49:43;;;;;;;14.38;2.88;;;15.90;99.90;;;;;;4998947;28;20105;-65
2023/03/23 10:52:36;;;;;;;12.93;2.78;;;15.80;99.90;;;;;;4998400;28;20019;-65
2023/03/23 10:55:12;;;;;;;12.18;2.47;;;15.90;99.90;;;;;;4999306;28;20057;-78
2023/03/23 10:57:40;;;;;;;13.93;3.08;;;16.20;99.90;;;;;;5001643;28;20022;-65
2023/03/23 11:00:16;;;;;;;14.90;2.92;;;16.40;99.90;;;;;;5000048;28;20045;-65
2023/03/23 11:02:48;;;;;;;17.27;2.45;;;16.50;99.90;;;;;;5004341;28;20424;-66
2023/03/23 11:05:23;;;;;;;15.73;3.30;;;16.30;99.90;;;;;;5020717;28;20061;-65
2023/03/23 11:07:57;;;;;;;17.80;2.92;;;16.20;99.90;;;;;;5005563;28;20358;-68
2023/03/23 11:10:27;;;;;;;21.80;3.17;;;16.10;99.90;;;;;;5000086;28;20014;-65
2023/03/23 11:12:57;;;;;;;22.02;3.53;;;16.30;99.90;;;;;;4998313;28;20042;-76
2023/03/23 11:15:36;;;;;;;11.90;2.72;;;16.40;99.90;;;;;;5004803;28;20370;-78
2023/03/23 11:18:05;;;;;;;15.05;2.42;;;16.70;99.90;;;;;;5001557;28;20317;-65
2023/03/23 11:20:36;;;;;;;10.40;2.28;;;16.70;99.90;;;;;;4996510;28;20038;-66
2023/03/23 11:23:21;;;;;;;19.60;3.13;;;16.50;99.90;;;;;;5013540;28;20088;-66
2023/03/23 11:26:17;;;;;;;20.65;3.40;;;16.30;99.90;;;;;;5015073;28;20421;-66
2023/03/23 11:29:05;;;;;;;10.35;2.65;;;16.20;99.90;;;;;;4983355;28;20404;-66
2023/03/23 11:31:41;;;;;;;17.20;3.13;;;16.50;99.90;;;;;;5005626;28;20401;-65
2023/03/23 11:34:15;;;;;;;14.85;3.35;;;16.50;99.90;;;;;;4997953;28;20030;-66
2023/03/23 11:36:48;;;;;;;20.98;3.40;;;16.60;99.90;;;;;;4997271;28;20030;-67
2023/03/23 11:39:28;;;;;;;13.90;2.40;;;16.80;99.90;;;;;;4997744;28;20085;-66
2023/03/23 11:41:57;;;;;;;14.73;2.10;;;16.70;99.90;;;;;;4993453;28;20030;-65
2023/03/23 11:44:31;;;;;;;12.45;2.00;;;16.50;99.90;;;;;;4998107;28;20041;-65
2023/03/23 11:47:21;;;;;;;16.83;3.58;;;16.60;99.90;;;;;;4998850;28;20029;-66
2023/03/23 11:50:24;;;;;;;16.95;3.40;;;16.30;99.90;;;;;;4999456;28;20026;-67
2023/03/23 11:52:50;;;;;;;12.73;2.78;;;16.30;99.90;;;;;;4949340;28;20349;-67
2023/03/23 11:55:22;;;;;;;12.43;2.90;;;16.00;99.90;;;;;;5000809;28;20063;-65
2023/03/23 11:57:48;;;;;;;16.08;3.05;;;15.80;99.90;;;;;;5006514;28;20333;-65
2023/03/23 12:00:19;;;;;;;13.55;2.42;;;15.50;99.90;;;;;;5009609;28;20054;-65
2023/03/23 12:03:25;;;;;;;16.52;3.80;;;15.30;99.90;;;;;;5011149;28;20025;-65
2023/03/23 12:06:06;;;;;;;12.07;2.28;;;15.30;99.90;;;;;;5000067;28;20042;-66
2023/03/23 12:09:06;;;;;;;10.10;2.13;;;15.10;99.90;;;;;;4989231;28;22119;-65
2023/03/23 12:12:20;;;;;;;22.35;2.90;;;15.20;99.90;;;;;;4998538;28;20054;-65
2023/03/23 12:14:55;;;;;;;11.68;2.05;;;15.40;99.90;;;;;;4931697;29;20040;-66
2023/03/23 12:17:42;;;;;;;10.98;3.05;;;15.30;99.90;;;;;;4934940;29;20431;-64
2023/03/23 12:20:31;;;;;;;14.00;2.30;;;15.30;99.90;;;;;;4934220;29;20074;-66
2023/03/23 12:23:19;;;;;;;9.18;2.45;;;15.10;99.90;;;;;;4934246;29;20043;-66
2023/03/23 12:26:13;;;;;;;11.43;2.30;;;14.90;99.90;;;;;;4932980;29;20031;-82
2023/03/23 12:28:57;;;;;;;15.07;2.72;;;14.80;99.90;;;;;;4915698;29;20147;-66
2023/03/23 12:31:29;;;;;;;11.05;2.55;;;14.80;99.90;;;;;;4934268;29;20467;-65
2023/03/23 12:34:36;;;;;;;18.23;2.88;;;14.80;99.90;;;;;;4936283;29;20059;-65
2023/03/23 12:37:10;;;;;;;6.85;1.70;;;14.70;99.90;;;;;;4934892;29;20126;-65
2023/03/23 12:39:55;;;;;;;11.73;2.83;;;14.80;99.90;;;;;;4935098;29;20477;-85
2023/03/23 12:42:39;;;;;;;14.43;2.30;;;14.70;99.90;;;;;;4935481;29;20376;-67
2023/03/23 12:45:12;;;;;;;8.70;2.00;;;14.70;99.90;;;;;;4936850;29;20023;-67
2023/03/23 12:47:47;;;;;;;10.93;2.65;;;15.20;99.90;;;;;;4938271;28;20028;-79
2023/03/23 12:50:24;;;;;;;12.90;2.33;;;15.40;99.90;;;;;;4994749;28;20453;-66
2023/03/23 12:52:54;;;;;;;13.88;2.17;;;15.30;99.90;;;;;;4996307;28;20030;-66
2023/03/23 12:55:32;;;;;;;6.90;2.08;;;15.10;99.90;;;;;;5008072;28;20025;-66
2023/03/23 12:58:13;;;;;;;7.30;1.80;;;15.10;99.90;;;;;;5000885;28;20110;-64
2023/03/23 13:00:48;;;;;;;16.73;2.15;;;14.90;99.90;;;;;;5009515;28;20029;-67
2023/03/23 13:03:40;;;;;;;11.05;2.70;;;14.80;99.90;;;;;;4998303;28;20030;-77
2023/03/23 13:06:26;;;;;;;10.68;2.97;;;14.70;99.90;;;;;;5004122;28;20030;-84